createdAt,value
2022-08-09T00:00:11.877Z,6.88
2022-08-09T00:02:42.991Z,4.82
2022-08-09T00:06:18.956Z,9.55
2022-08-09T00:08:09.972Z,5.55
2022-08-09T00:10:40.106Z,4.30
2022-08-09T00:13:16.939Z,6.45
2022-08-09T00:15:58.985Z,10.65
2022-08-09T00:18:29.071Z,7.70
2022-08-09T00:20:55.934Z,4.30
2022-08-09T00:23:58.021Z,4.90
2022-08-09T00:26:11.320Z,7.85
2022-08-09T00:28:39.469Z,8.50
2022-08-09T00:31:30.369Z,5.03
2022-08-09T00:33:55.356Z,8.30
2022-08-09T00:36:29.752Z,6.82
2022-08-09T00:38:58.668Z,7.15
2022-08-09T00:44:15.131Z,5.70
2022-08-09T00:44:24.584Z,8.70
2022-08-09T00:46:57.517Z,8.38
2022-08-09T00:49:31.404Z,9.07
2022-08-09T00:52:05.211Z,11.27
2022-08-09T00:54:35.167Z,7.55
2022-08-09T00:57:10.636Z,5.45
2022-08-09T00:59:46.610Z,4.20
2022-08-09T01:02:20.384Z,9.57
2022-08-09T01:05:05.420Z,9.93
2022-08-09T01:08:00.434Z,6.55
2022-08-09T01:10:36.928Z,7.70
2022-08-09T01:13:13.027Z,11.38
2022-08-09T01:15:52.159Z,9.02
2022-08-09T01:18:30.009Z,8.80
2022-08-09T01:21:05.949Z,7.00
2022-08-09T01:24:02.479Z,6.70
2022-08-09T01:26:54.568Z,11.38
2022-08-09T01:29:41.080Z,7.65
2022-08-09T01:32:32.093Z,9.05
2022-08-09T01:35:07.037Z,8.88
2022-08-09T01:38:07.891Z,6.72
2022-08-09T01:40:41.783Z,6.20
2022-08-09T01:43:09.944Z,5.32
2022-08-09T01:45:46.289Z,10.13
2022-08-09T01:48:17.017Z,9.77
2022-08-09T01:50:55.177Z,10.07
2022-08-09T01:53:23.179Z,9.73
2022-08-09T01:55:52.383Z,9.88
2022-08-09T01:58:23.924Z,5.70
2022-08-09T02:00:53.442Z,8.23
2022-08-09T02:03:20.364Z,8.50
2022-08-09T02:06:04.078Z,8.75
2022-08-09T02:08:59.053Z,13.93
2022-08-09T02:11:42.557Z,8.73
2022-08-09T02:14:14.951Z,8.75
2022-08-09T02:16:53.021Z,7.05
2022-08-09T02:19:39.063Z,6.38
2022-08-09T02:22:31.631Z,7.80
2022-08-09T02:25:10.200Z,9.27
2022-08-09T02:28:00.660Z,8.20
2022-08-09T02:30:37.652Z,6.70
2022-08-09T02:33:14.287Z,9.23
2022-08-09T02:36:03.804Z,8.95
2022-08-09T02:38:36.041Z,10.15
2022-08-09T02:41:08.265Z,12.07
2022-08-09T02:43:47.733Z,8.70
2022-08-09T02:46:24.279Z,10.18
2022-08-09T02:48:52.986Z,10.65
2022-08-09T02:51:22.520Z,9.60
2022-08-09T02:54:01.210Z,12.38
2022-08-09T02:56:30.240Z,8.70
2022-08-09T02:58:59.324Z,8.32
2022-08-09T03:01:29.583Z,13.43
2022-08-09T03:04:19.362Z,11.80
2022-08-09T03:06:48.798Z,8.38
2022-08-09T03:09:17.598Z,7.95
2022-08-09T03:12:05.921Z,14.02
2022-08-09T03:14:33.595Z,11.40
2022-08-09T03:17:05.577Z,15.35
2022-08-09T03:19:59.383Z,11.75
2022-08-09T03:22:25.440Z,8.10
2022-08-09T03:25:06.749Z,8.48
2022-08-09T03:27:48.932Z,9.35
2022-08-09T03:30:30.269Z,9.02
2022-08-09T03:33:11.087Z,9.75
2022-08-09T03:35:44.351Z,8.93
2022-08-09T03:38:30.399Z,8.95
2022-08-09T03:40:58.006Z,12.70
2022-08-09T03:43:25.070Z,11.27
2022-08-09T03:46:05.177Z,13.00
2022-08-09T03:48:51.277Z,11.43
2022-08-09T03:51:56.726Z,12.90
2022-08-09T03:54:10.624Z,8.05
2022-08-09T03:56:42.023Z,11.63
2022-08-09T03:59:21.094Z,12.23
2022-08-09T04:01:59.158Z,15.10
2022-08-09T04:04:32.523Z,13.82
2022-08-09T04:07:03.651Z,11.90
2022-08-09T04:09:48.250Z,13.70
2022-08-09T04:12:45.554Z,14.88
2022-08-09T04:15:17.183Z,12.80
2022-08-09T04:17:57.693Z,14.68
2022-08-09T04:20:24.581Z,15.32
2022-08-09T04:22:52.711Z,14.82
2022-08-09T04:25:19.535Z,12.73
2022-08-09T04:27:46.723Z,12.02
2022-08-09T04:30:20.965Z,12.63
2022-08-09T04:32:50.990Z,15.18
2022-08-09T04:35:18.189Z,12.00
2022-08-09T04:37:49.866Z,9.73
2022-08-09T04:40:28.884Z,16.50
2022-08-09T04:43:03.834Z,16.10
2022-08-09T04:45:36.041Z,11.93
2022-08-09T04:48:18.669Z,11.98
2022-08-09T04:50:45.324Z,19.38
2022-08-09T04:53:16.520Z,15.65
2022-08-09T04:55:58.307Z,12.68
2022-08-09T04:58:32.927Z,16.90
2022-08-09T05:03:40.614Z,13.43
2022-08-09T05:06:11.677Z,13.55
2022-08-09T05:08:38.517Z,19.38
2022-08-09T05:11:07.530Z,13.63
2022-08-09T05:13:38.659Z,14.55
2022-08-09T05:16:10.087Z,15.95
2022-08-09T05:18:58.168Z,11.98
2022-08-09T05:21:24.873Z,13.35
2022-08-09T05:24:01.431Z,17.67
2022-08-09T05:26:45.421Z,16.48
2022-08-09T05:29:21.483Z,16.35
2022-08-09T05:31:57.272Z,22.15
2022-08-09T05:34:30.843Z,16.67
2022-08-09T05:37:06.779Z,18.17
2022-08-09T05:39:42.778Z,18.23
2022-08-09T05:42:21.258Z,16.20
2022-08-09T05:45:00.496Z,18.98
2022-08-09T05:47:30.279Z,20.83
2022-08-09T05:50:30.772Z,16.15
2022-08-09T05:52:44.511Z,20.23
2022-08-09T05:55:21.800Z,13.77
2022-08-09T05:57:56.915Z,13.48
2022-08-09T06:00:30.977Z,20.80
2022-08-09T06:03:01.791Z,18.63
2022-08-09T06:05:54.609Z,15.40
2022-08-09T06:08:19.831Z,19.08
2022-08-09T06:10:56.010Z,16.38
2022-08-09T06:13:23.877Z,12.63
2022-08-09T06:15:52.304Z,19.52
2022-08-09T06:18:23.741Z,15.95
2022-08-09T06:20:54.826Z,20.85
2022-08-09T06:23:58.688Z,23.95
2022-08-09T06:26:20.059Z,20.88
2022-08-09T06:28:59.356Z,19.33
2022-08-09T06:31:31.437Z,14.18
2022-08-09T06:34:06.413Z,19.10
2022-08-09T06:36:34.012Z,18.70
2022-08-09T06:39:02.457Z,17.77
2022-08-09T06:42:07.647Z,20.25
2022-08-09T06:44:22.517Z,21.52
2022-08-09T06:46:55.356Z,14.07
2022-08-09T06:49:44.730Z,22.33
2022-08-09T06:52:09.844Z,16.63
2022-08-09T06:54:38.792Z,15.73
2022-08-09T06:57:08.262Z,15.48
2022-08-09T07:00:48.792Z,15.07
2022-08-09T07:02:22.069Z,16.27
2022-08-09T07:04:56.162Z,14.88
2022-08-09T07:07:58.664Z,18.13
2022-08-09T07:10:22.319Z,17.83
2022-08-09T07:12:57.711Z,19.88
2022-08-09T07:16:36.355Z,22.20
2022-08-09T07:18:15.268Z,13.32
2022-08-09T07:20:43.729Z,15.20
2022-08-09T07:23:18.295Z,15.35
2022-08-09T07:25:47.211Z,17.98
2022-08-09T07:28:19.216Z,14.70
2022-08-09T07:30:53.975Z,15.82
2022-08-09T07:33:21.926Z,18.75
2022-08-09T07:35:54.416Z,12.73
2022-08-09T07:38:23.520Z,15.77
2022-08-09T07:41:10.081Z,18.55
2022-08-09T07:43:41.022Z,17.33
2022-08-09T07:46:10.657Z,12.07
2022-08-09T07:48:43.965Z,9.20
2022-08-09T07:52:03.626Z,8.80
2022-08-09T07:54:07.801Z,10.98
2022-08-09T07:56:44.735Z,10.20
2022-08-09T07:59:25.723Z,7.32
2022-08-09T08:02:00.862Z,10.52
2022-08-09T08:04:31.740Z,10.32
2022-08-09T08:07:00.073Z,7.65
2022-08-09T08:09:38.566Z,8.88
2022-08-09T08:12:36.505Z,10.70
2022-08-09T08:14:58.571Z,6.22
2022-08-09T08:17:54.228Z,8.30
2022-08-09T08:20:13.665Z,7.75
2022-08-09T08:22:41.445Z,6.85
2022-08-09T08:25:13.423Z,4.43
2022-08-09T08:27:42.873Z,3.70
2022-08-09T08:30:11.709Z,5.85
2022-08-09T08:32:41.705Z,7.60
2022-08-09T08:35:20.201Z,7.18
2022-08-09T08:37:59.642Z,4.22
2022-08-09T08:40:33.269Z,4.38
2022-08-09T08:43:01.963Z,2.70
2022-08-09T08:45:53.204Z,11.20
2022-08-09T08:48:22.169Z,5.25
2022-08-09T08:50:49.418Z,6.63
2022-08-09T08:53:21.622Z,5.68
2022-08-09T08:55:49.112Z,3.22
2022-08-09T08:58:27.259Z,4.65
2022-08-09T09:00:57.104Z,2.92
2022-08-09T09:03:37.716Z,5.35
2022-08-09T09:06:05.819Z,3.67
2022-08-09T09:08:40.437Z,2.45
2022-08-09T09:11:13.772Z,8.07
2022-08-09T09:13:57.102Z,2.47
2022-08-09T09:16:32.392Z,2.33
2022-08-09T09:19:22.762Z,5.78
2022-08-09T09:22:04.093Z,3.72
2022-08-09T09:24:38.859Z,2.35
2022-08-09T09:27:08.527Z,1.83
2022-08-09T09:30:11.506Z,1.48
2022-08-09T09:32:34.436Z,3.85
2022-08-09T09:35:09.654Z,1.92
2022-08-09T09:37:40.234Z,4.80
2022-08-09T09:40:09.014Z,2.05
2022-08-09T09:42:36.346Z,6.03
2022-08-09T09:45:08.078Z,2.33
2022-08-09T09:47:47.927Z,4.88
2022-08-09T09:50:49.687Z,1.63
2022-08-09T09:53:21.380Z,2.45
2022-08-09T09:56:04.420Z,0.70
2022-08-09T09:58:47.345Z,3.22
2022-08-09T10:01:37.451Z,4.85
2022-08-09T10:04:22.979Z,1.60
2022-08-09T10:06:57.562Z,4.03
2022-08-09T10:09:24.419Z,1.65
2022-08-09T10:12:26.851Z,3.58
2022-08-09T10:14:49.323Z,1.75
2022-08-09T10:17:39.295Z,4.38
2022-08-09T10:20:35.930Z,2.65
2022-08-09T10:23:20.089Z,1.13
2022-08-09T10:26:07.186Z,1.48
2022-08-09T10:28:36.728Z,2.25
2022-08-09T10:34:08.870Z,3.50
2022-08-09T10:36:38.448Z,3.00
2022-08-09T10:39:16.098Z,3.40
2022-08-09T10:41:47.742Z,1.83
2022-08-09T10:44:18.927Z,2.55
2022-08-09T10:48:14.265Z,2.80
2022-08-09T10:50:31.439Z,4.28
2022-08-09T10:53:19.198Z,0.95
2022-08-09T10:55:58.455Z,3.03
2022-08-09T10:58:33.540Z,1.90
2022-08-09T11:03:01.683Z,0.95
2022-08-09T11:04:28.296Z,2.92
2022-08-09T11:07:00.751Z,3.83
2022-08-09T11:09:47.737Z,2.47
2022-08-09T11:12:20.133Z,1.10
2022-08-09T11:15:24.091Z,2.53
2022-08-09T11:18:03.089Z,1.98
2022-08-09T11:20:47.534Z,1.58
2022-08-09T11:23:16.973Z,1.73
2022-08-09T11:25:50.917Z,1.77
2022-08-09T11:28:54.078Z,2.20
2022-08-09T11:31:49.949Z,2.63
2022-08-09T11:34:33.216Z,2.23
2022-08-09T11:40:01.901Z,1.48
2022-08-09T11:42:48.800Z,2.80
2022-08-09T11:45:42.060Z,1.85
2022-08-09T11:48:26.344Z,2.03
2022-08-09T11:52:49.983Z,1.63
2022-08-09T11:53:44.181Z,1.83
2022-08-09T11:56:42.499Z,2.60
2022-08-09T11:59:30.701Z,2.30
2022-08-09T12:02:34.674Z,2.40
2022-08-09T12:04:58.108Z,2.17
2022-08-09T12:07:41.564Z,2.05
2022-08-09T12:10:32.011Z,1.85
2022-08-09T12:13:00.286Z,1.23
2022-08-09T12:15:50.279Z,0.95
2022-08-09T12:18:29.729Z,3.05
2022-08-09T12:21:00.714Z,3.55
2022-08-09T12:23:57.915Z,2.75
2022-08-09T12:26:25.402Z,1.38
2022-08-09T12:29:15.116Z,1.33
2022-08-09T12:31:58.603Z,0.90
2022-08-09T12:34:37.777Z,3.47
2022-08-09T12:37:21.646Z,1.65
2022-08-09T12:40:11.661Z,1.95
2022-08-09T12:42:43.912Z,1.20
2022-08-09T12:45:34.983Z,2.70
2022-08-09T12:47:59.155Z,1.23
2022-08-09T12:50:25.927Z,2.38
2022-08-09T12:53:07.884Z,3.85
2022-08-09T12:56:13.682Z,2.70
2022-08-09T12:58:27.283Z,1.38
2022-08-09T13:00:55.055Z,4.13
2022-08-09T13:03:53.779Z,4.15
2022-08-09T13:06:36.725Z,5.63
2022-08-09T13:09:20.005Z,4.32
2022-08-09T13:11:51.302Z,1.27
2022-08-09T13:14:41.400Z,1.17
2022-08-09T13:17:16.113Z,2.60
2022-08-09T13:20:10.333Z,1.50
2022-08-09T13:23:04.750Z,9.45
2022-08-09T13:25:52.838Z,1.02
2022-08-09T13:28:33.913Z,2.13
2022-08-09T13:32:15.825Z,7.93
2022-08-09T13:33:58.281Z,2.45
2022-08-09T13:36:41.713Z,3.60
2022-08-09T13:41:46.433Z,0.90
2022-08-09T13:42:12.110Z,1.17
2022-08-09T13:44:42.615Z,1.35
2022-08-09T13:47:29.356Z,0.65
2022-08-09T13:50:01.224Z,3.03
2022-08-09T13:52:30.145Z,3.42
2022-08-09T13:55:00.571Z,1.15
2022-08-09T13:57:36.680Z,2.08
2022-08-09T14:00:13.038Z,2.30
2022-08-09T14:03:02.147Z,1.00
2022-08-09T14:05:57.321Z,1.63
2022-08-09T14:08:17.424Z,4.40
2022-08-09T14:10:49.284Z,1.13
2022-08-09T14:14:15.945Z,1.48
2022-08-09T14:16:14.143Z,0.40
2022-08-09T14:18:45.187Z,2.50
2022-08-09T14:21:17.506Z,1.77
2022-08-09T14:23:54.976Z,2.15
2022-08-09T14:26:31.659Z,0.95
2022-08-09T14:29:01.946Z,0.60
2022-08-09T14:31:36.080Z,2.47
2022-08-09T14:34:17.717Z,0.88
2022-08-09T14:37:06.238Z,1.95
2022-08-09T14:39:46.182Z,2.10
2022-08-09T14:42:28.886Z,1.55
2022-08-09T14:45:00.137Z,5.28
2022-08-09T14:47:45.426Z,6.95
2022-08-09T14:50:16.139Z,1.65
2022-08-09T14:52:44.032Z,4.72
2022-08-09T14:55:20.340Z,2.78
2022-08-09T14:57:48.742Z,3.17
2022-08-09T15:00:16.416Z,5.05
2022-08-09T15:02:47.129Z,2.17
2022-08-09T15:05:16.880Z,4.05
2022-08-09T15:07:45.666Z,4.55
2022-08-09T15:10:24.996Z,0.93
2022-08-09T15:12:53.257Z,1.48
2022-08-09T15:15:20.367Z,1.27
2022-08-09T15:17:52.296Z,1.35
2022-08-09T15:21:56.827Z,0.80
2022-08-09T15:24:01.275Z,1.50
2022-08-09T15:25:57.347Z,1.20
2022-08-09T15:28:28.105Z,3.22
2022-08-09T15:31:10.200Z,0.65
2022-08-09T15:34:32.483Z,2.92
2022-08-09T15:36:30.254Z,5.32
2022-08-09T15:39:00.616Z,2.95
2022-08-09T15:41:31.720Z,0.85
2022-08-09T15:44:00.586Z,1.65
2022-08-09T15:46:34.461Z,3.15
2022-08-09T15:49:22.975Z,3.50
2022-08-09T15:52:03.840Z,3.55
2022-08-09T15:54:52.525Z,1.27
2022-08-09T15:57:34.295Z,1.95
2022-08-09T16:00:24.154Z,1.63
2022-08-09T16:02:53.780Z,3.85
2022-08-09T16:05:23.804Z,2.17
2022-08-09T16:07:51.103Z,4.40
2022-08-09T16:10:38.815Z,1.88
2022-08-09T16:13:20.674Z,3.67
2022-08-09T16:16:10.448Z,8.30
2022-08-09T16:18:44.737Z,4.65
2022-08-09T16:21:17.176Z,1.50
2022-08-09T16:23:55.427Z,3.72
2022-08-09T16:26:34.507Z,4.38
2022-08-09T16:29:13.030Z,2.25
2022-08-09T16:32:19.479Z,3.17
2022-08-09T16:34:54.539Z,19.33
2022-08-09T16:37:20.123Z,2.95
2022-08-09T16:40:08.972Z,3.45
2022-08-09T16:42:36.158Z,2.47
2022-08-09T16:45:05.080Z,1.95
2022-08-09T16:48:40.997Z,1.52
2022-08-09T16:50:29.271Z,2.63
2022-08-09T16:52:57.836Z,4.53
2022-08-09T16:55:27.401Z,12.85
2022-08-09T16:58:11.645Z,4.28
2022-08-09T17:00:42.635Z,2.63
2022-08-09T17:03:21.064Z,5.22
2022-08-09T17:06:07.475Z,3.33
2022-08-09T17:09:01.559Z,2.00
2022-08-09T17:11:41.303Z,4.82
2022-08-09T17:14:15.993Z,2.47
2022-08-09T17:16:56.351Z,8.38
2022-08-09T17:19:27.730Z,4.72
2022-08-09T17:22:14.753Z,1.63
2022-08-09T17:24:47.532Z,1.10
2022-08-09T17:27:21.859Z,3.92
2022-08-09T17:29:48.638Z,3.58
2022-08-09T17:32:34.743Z,3.85
2022-08-09T17:35:11.471Z,4.07
2022-08-09T17:40:27.966Z,5.63
2022-08-09T17:42:59.455Z,3.63
2022-08-09T17:45:56.874Z,3.03
2022-08-09T17:48:19.140Z,4.80
2022-08-09T17:50:56.433Z,1.73
2022-08-09T17:53:26.120Z,2.90
2022-08-09T17:55:57.627Z,2.33
2022-08-09T17:58:27.805Z,3.97
2022-08-09T18:00:58.374Z,2.78
2022-08-09T18:03:25.893Z,1.77
2022-08-09T18:05:55.382Z,2.28
2022-08-09T18:08:27.727Z,1.80
2022-08-09T18:11:02.344Z,2.33
2022-08-09T18:13:43.458Z,1.13
2022-08-09T18:16:29.480Z,2.47
2022-08-09T18:19:03.483Z,5.65
2022-08-09T18:21:41.076Z,1.30
2022-08-09T18:24:14.614Z,1.75
2022-08-09T18:26:46.595Z,2.93
2022-08-09T18:30:42.911Z,1.77
2022-08-09T18:32:05.364Z,3.65
2022-08-09T18:34:35.155Z,1.98
2022-08-09T18:37:03.757Z,4.68
2022-08-09T18:39:32.754Z,2.33
2022-08-09T18:42:05.287Z,6.43
2022-08-09T18:44:36.083Z,0.75
2022-08-09T18:47:07.776Z,1.02
2022-08-09T18:49:46.273Z,1.17
2022-08-09T18:52:18.609Z,2.72
2022-08-09T18:54:53.785Z,2.08
2022-08-09T18:57:21.917Z,2.10
2022-08-09T18:59:55.526Z,2.13
2022-08-09T19:02:31.962Z,1.75
2022-08-09T19:05:19.872Z,4.28
2022-08-09T19:08:03.603Z,1.63
2022-08-09T19:10:42.766Z,3.63
2022-08-09T19:13:20.610Z,3.45
2022-08-09T19:15:56.491Z,1.92
2022-08-09T19:18:37.456Z,2.78
2022-08-09T19:21:10.566Z,3.28
2022-08-09T19:24:32.920Z,1.33
2022-08-09T19:26:32.287Z,6.82
2022-08-09T19:29:09.667Z,2.47
2022-08-09T19:31:46.020Z,5.70
2022-08-09T19:34:21.285Z,2.47
2022-08-09T19:36:58.918Z,1.88
2022-08-09T19:39:43.493Z,4.65
2022-08-09T19:42:14.960Z,4.05
2022-08-09T19:44:42.578Z,3.75
2022-08-09T19:47:11.542Z,2.67
2022-08-09T19:50:08.425Z,1.33
2022-08-09T19:52:30.411Z,1.52
2022-08-09T19:54:59.428Z,2.75
2022-08-09T19:57:29.045Z,3.40
2022-08-09T20:00:06.639Z,3.75
2022-08-09T20:04:08.334Z,2.63
2022-08-09T20:05:23.804Z,3.85
2022-08-09T20:07:59.205Z,2.42
2022-08-09T20:10:34.465Z,1.85
2022-08-09T20:13:05.338Z,2.30
2022-08-09T20:16:37.680Z,4.75
2022-08-09T20:18:20.150Z,2.60
2022-08-09T20:20:51.300Z,1.58
2022-08-09T20:23:22.931Z,5.53
2022-08-09T20:25:53.669Z,2.58
2022-08-09T20:28:34.099Z,2.83
2022-08-09T20:31:13.863Z,3.25
2022-08-09T20:33:44.069Z,1.92
2022-08-09T20:36:12.360Z,1.67
2022-08-09T20:41:32.110Z,2.38
2022-08-09T20:44:02.222Z,2.00
2022-08-09T20:46:42.122Z,1.70
2022-08-09T20:49:13.598Z,1.67
2022-08-09T20:51:42.250Z,3.67
2022-08-09T20:54:10.567Z,4.07
2022-08-09T20:56:42.023Z,4.68
2022-08-09T20:59:09.969Z,2.80
2022-08-09T21:01:50.091Z,3.38
2022-08-09T21:05:55.006Z,1.50
2022-08-09T21:07:12.969Z,2.20
2022-08-09T21:09:56.429Z,4.70
2022-08-09T21:15:17.176Z,4.03
2022-08-09T21:18:21.398Z,1.65
2022-08-09T21:20:37.043Z,3.33
2022-08-09T21:23:09.263Z,2.00
2022-08-09T21:25:55.761Z,1.70
2022-08-09T21:28:34.303Z,1.60
2022-08-09T21:31:16.529Z,3.28
2022-08-09T21:33:46.085Z,1.67
2022-08-09T21:36:18.224Z,7.70
2022-08-09T21:38:45.712Z,1.98
2022-08-09T21:42:00.303Z,2.83
2022-08-09T21:44:09.943Z,4.05
2022-08-09T21:46:36.606Z,2.85
2022-08-09T21:49:04.014Z,2.45
2022-08-09T21:51:36.351Z,4.97
2022-08-09T21:54:10.442Z,3.33
2022-08-09T21:56:44.551Z,3.83
2022-08-09T21:59:23.437Z,2.75
2022-08-09T22:01:58.833Z,3.22
2022-08-09T22:04:55.598Z,2.50
2022-08-09T22:07:23.288Z,1.30
2022-08-09T22:10:02.052Z,1.98
2022-08-09T22:12:30.776Z,2.92
2022-08-09T22:14:58.977Z,1.92
2022-08-09T22:17:25.967Z,3.88
2022-08-09T22:19:58.516Z,1.90
2022-08-09T22:22:27.900Z,2.15
2022-08-09T22:26:06.103Z,3.83
2022-08-09T22:27:42.197Z,2.80
2022-08-09T22:30:10.179Z,2.38
2022-08-09T22:32:37.513Z,8.68
2022-08-09T22:36:00.852Z,2.78
2022-08-09T22:38:06.530Z,3.45
2022-08-09T22:40:34.431Z,2.28
2022-08-09T22:43:01.174Z,5.32
2022-08-09T22:48:18.730Z,2.03
2022-08-09T22:48:36.039Z,1.73
2022-08-09T22:51:10.663Z,5.15
2022-08-09T22:53:58.495Z,1.90
2022-08-09T22:56:31.254Z,5.22
2022-08-09T22:59:01.214Z,3.95
2022-08-09T23:01:33.308Z,2.45
2022-08-09T23:04:04.134Z,4.93
2022-08-09T23:06:52.127Z,2.03
2022-08-09T23:09:18.912Z,2.55
2022-08-09T23:11:45.697Z,5.72
2022-08-09T23:14:17.111Z,2.30
2022-08-09T23:16:44.872Z,3.97
2022-08-09T23:19:11.548Z,2.50
2022-08-09T23:21:39.528Z,6.35
2022-08-09T23:24:07.611Z,2.05
2022-08-09T23:26:39.265Z,3.42
2022-08-09T23:29:07.312Z,2.40
2022-08-09T23:31:41.625Z,2.20
2022-08-09T23:34:08.981Z,4.03
2022-08-09T23:36:36.687Z,7.43
2022-08-09T23:39:05.178Z,2.47
2022-08-09T23:41:33.406Z,2.05
2022-08-09T23:44:01.546Z,1.80
2022-08-09T23:46:29.651Z,6.45
2022-08-09T23:48:57.741Z,2.13
2022-08-09T23:51:24.585Z,2.25
2022-08-09T23:53:52.322Z,4.00
2022-08-09T23:56:53.181Z,5.90
2022-08-09T23:59:06.189Z,1.92
